Time;durP1;ratioP1;P1;durP2;ratioP2;P2;SDS_P1;SDS_P2;PMS_P1;PMS_P2;Temp;Humidity;BMP_temperature;BMP_pressure;BME280_temperature;BME280_humidity;BME280_pressure;Samples;Min_cycle;Max_cycle;Signal;HPM_P1;HPM_P2
2022/01/26 00:08:04;;;;;;;4.10;2.97;;;17.40;65.60;;;;;;10493706;28;20644;-69
2022/01/26 00:13:27;;;;;;;3.77;3.47;;;17.40;66.20;;;;;;10498522;28;20193;-69
2022/01/26 00:18:51;;;;;;;4.40;3.60;;;17.40;65.60;;;;;;10496876;28;20212;-70
2022/01/26 00:24:38;;;;;;;4.27;3.60;;;17.40;65.50;;;;;;10497289;28;20283;-70
2022/01/26 00:31:12;;;;;;;3.67;3.30;;;17.40;65.40;;;;;;10491204;28;20212;-70
2022/01/26 00:41:33;;;;;;;3.20;2.90;;;17.40;65.50;;;;;;10496121;28;20212;-70
2022/01/26 00:46:58;;;;;;;3.27;2.97;;;17.40;65.40;;;;;;10496338;28;20200;-69
2022/01/26 00:52:28;;;;;;;4.10;3.53;;;17.40;65.40;;;;;;10496782;28;20231;-69
2022/01/26 00:57:50;;;;;;;3.60;3.10;;;17.40;65.40;;;;;;10471204;28;20328;-69
2022/01/26 01:03:14;;;;;;;3.60;3.30;;;17.40;65.50;;;;;;10483823;28;20602;-69
2022/01/26 01:08:36;;;;;;;4.13;3.47;;;17.40;65.40;;;;;;10493623;28;20216;-70
2022/01/26 01:13:58;;;;;;;4.10;3.40;;;17.40;65.40;;;;;;10493099;28;20622;-70
2022/01/26 01:19:32;;;;;;;4.07;3.60;;;17.40;65.30;;;;;;10495324;28;20265;-71
2022/01/26 01:30:40;;;;;;;4.60;3.10;;;17.40;65.30;;;;;;10493238;28;20220;-69
2022/01/26 01:36:05;;;;;;;4.07;3.40;;;17.40;65.30;;;;;;10493845;28;20672;-69
2022/01/26 01:41:27;;;;;;;3.80;3.40;;;17.30;65.20;;;;;;10492251;28;20700;-69
2022/01/26 01:46:50;;;;;;;3.93;3.40;;;17.40;65.30;;;;;;10492620;28;20200;-70
2022/01/26 01:52:15;;;;;;;4.30;3.50;;;17.30;65.20;;;;;;10493065;28;20265;-69
2022/01/26 01:57:37;;;;;;;3.20;2.80;;;17.40;65.20;;;;;;10492766;28;20204;-68
2022/01/26 02:03:00;;;;;;;3.20;2.90;;;17.40;65.10;;;;;;10480579;28;20195;-69
2022/01/26 02:08:23;;;;;;;3.77;3.23;;;17.30;65.00;;;;;;10491557;28;20259;-70
2022/01/26 02:13:54;;;;;;;3.37;2.80;;;17.40;65.10;;;;;;10492945;28;20204;-69
2022/01/26 02:53:45;;;;;;;2.77;2.57;;;17.30;65.10;;;;;;10499445;28;20196;-71
2022/01/26 02:59:33;;;;;;;3.20;2.90;;;17.30;65.10;;;;;;10499814;28;20209;-69
2022/01/26 03:04:58;;;;;;;3.23;2.80;;;17.30;65.60;;;;;;10499616;28;20197;-70
2022/01/26 03:10:24;;;;;;;3.47;2.87;;;17.30;65.10;;;;;;10497766;28;20710;-69
2022/01/26 03:15:52;;;;;;;2.70;2.50;;;17.30;65.00;;;;;;10498958;28;20206;-69
2022/01/26 03:21:16;;;;;;;3.10;2.80;;;17.30;65.00;;;;;;10499862;28;20295;-69
2022/01/26 03:37:57;;;;;;;3.30;2.73;;;17.30;64.90;;;;;;10495911;28;20189;-70
2022/01/26 03:43:19;;;;;;;3.20;2.90;;;17.30;64.90;;;;;;10497450;28;20197;-70
2022/01/26 03:48:43;;;;;;;3.30;2.90;;;17.30;64.90;;;;;;10498488;28;20246;-70
2022/01/26 03:54:05;;;;;;;3.60;2.70;;;17.30;64.80;;;;;;10498723;28;20200;-69
2022/01/26 03:59:28;;;;;;;3.73;3.10;;;17.30;64.90;;;;;;10496617;28;20211;-70
2022/01/26 04:04:57;;;;;;;3.67;2.97;;;17.30;64.90;;;;;;10498103;28;20195;-70
2022/01/26 04:10:28;;;;;;;3.77;2.93;;;17.30;64.90;;;;;;10496662;28;20299;-70
2022/01/26 04:15:51;;;;;;;3.60;2.83;;;17.30;64.90;;;;;;10494968;28;20192;-69
2022/01/26 04:21:28;;;;;;;3.10;2.77;;;17.30;65.00;;;;;;10494964;28;20216;-69
2022/01/26 04:26:55;;;;;;;3.40;3.10;;;17.30;64.80;;;;;;10477329;28;20622;-70
2022/01/26 04:32:18;;;;;;;4.20;2.80;;;17.30;64.90;;;;;;10493455;28;20314;-70
2022/01/26 04:38:02;;;;;;;3.03;2.73;;;17.30;64.90;;;;;;10491298;28;20908;-69
2022/01/26 04:43:28;;;;;;;5.00;2.90;;;17.30;64.90;;;;;;10484281;28;20258;-69
2022/01/26 04:48:50;;;;;;;3.03;2.57;;;17.30;64.80;;;;;;10495296;28;20223;-69
2022/01/26 04:54:14;;;;;;;3.40;3.10;;;17.30;64.80;;;;;;10464195;22;20229;-68
2022/01/26 04:59:36;;;;;;;2.97;2.67;;;17.30;64.80;;;;;;10437689;28;20193;-68
2022/01/26 05:04:58;;;;;;;4.03;3.10;;;17.40;64.80;;;;;;10407522;28;20221;-68
2022/01/26 05:10:22;;;;;;;2.63;2.43;;;17.40;64.80;;;;;;10404170;28;20213;-68
2022/01/26 05:15:44;;;;;;;2.27;2.03;;;17.40;64.80;;;;;;10371901;28;20229;-69
2022/01/26 05:21:06;;;;;;;2.90;2.50;;;17.40;64.80;;;;;;10383068;28;20199;-68
2022/01/26 05:26:30;;;;;;;2.80;2.20;;;17.40;64.80;;;;;;10385136;28;20209;-68
2022/01/26 05:31:52;;;;;;;2.50;2.27;;;17.40;64.90;;;;;;10371162;28;20224;-68
2022/01/26 05:37:14;;;;;;;3.00;2.20;;;17.40;64.80;;;;;;10389139;28;20194;-68
2022/01/26 05:42:38;;;;;;;2.37;2.17;;;17.40;64.80;;;;;;10393383;28;20221;-68
2022/01/26 05:48:02;;;;;;;3.07;2.27;;;17.40;64.80;;;;;;10410058;28;20193;-68
2022/01/26 05:53:24;;;;;;;2.20;1.97;;;17.40;64.90;;;;;;10410489;28;20221;-67
2022/01/26 05:58:48;;;;;;;3.47;2.77;;;17.30;64.60;;;;;;10369090;28;20209;-68
2022/01/26 06:04:10;;;;;;;2.33;2.13;;;17.40;64.90;;;;;;10371310;28;20245;-67
2022/01/26 06:09:32;;;;;;;2.10;1.90;;;17.40;64.90;;;;;;10363119;28;20221;-67
2022/01/26 06:14:55;;;;;;;2.30;2.00;;;17.30;64.80;;;;;;10380800;28;20680;-68
2022/01/26 06:20:18;;;;;;;2.40;2.20;;;17.30;64.80;;;;;;10410330;28;20208;-68
2022/01/26 06:25:40;;;;;;;3.90;2.17;;;17.30;64.90;;;;;;10409607;28;20216;-69
2022/01/26 06:31:09;;;;;;;2.10;1.90;;;17.40;64.90;;;;;;10395821;28;20769;-68
2022/01/26 06:36:32;;;;;;;1.90;1.70;;;17.40;64.90;;;;;;10370645;28;20266;-68
2022/01/26 06:41:55;;;;;;;2.50;1.83;;;17.40;64.70;;;;;;10369432;28;20226;-68
2022/01/26 06:47:34;;;;;;;2.43;1.93;;;17.30;64.60;;;;;;10371893;28;20201;-69
2022/01/26 06:52:56;;;;;;;2.10;1.90;;;17.40;64.70;;;;;;10392152;28;20221;-68
2022/01/26 06:58:18;;;;;;;2.50;2.30;;;17.40;64.70;;;;;;10385652;28;20190;-69
2022/01/26 07:03:41;;;;;;;2.63;2.10;;;17.40;64.80;;;;;;10388974;28;20233;-69
2022/01/26 07:09:04;;;;;;;2.30;2.10;;;17.40;64.80;;;;;;10375854;28;20210;-68
2022/01/26 07:19:47;;;;;;;2.37;1.97;;;17.40;64.90;;;;;;10387082;28;20252;-68
2022/01/26 07:20:59;;;;;;;2.10;1.90;;;17.30;64.70;;;;;;10393835;28;20202;-69
2022/01/26 07:26:08;;;;;;;2.00;1.80;;;17.30;64.70;;;;;;10391237;28;20222;-68
2022/01/26 07:31:33;;;;;;;3.53;2.27;;;17.30;64.70;;;;;;10368583;28;20237;-68
2022/01/26 07:37:01;;;;;;;2.67;2.37;;;17.40;64.80;;;;;;10382704;28;20209;-69
2022/01/26 07:42:23;;;;;;;2.30;1.90;;;17.40;64.70;;;;;;10376285;28;20209;-68
2022/01/26 07:47:46;;;;;;;2.80;1.80;;;17.40;64.70;;;;;;10376586;28;20217;-69
2022/01/26 07:53:14;;;;;;;2.83;2.03;;;17.40;65.10;;;;;;10375462;28;20223;-69
2022/01/26 07:58:36;;;;;;;1.63;1.53;;;17.40;64.80;;;;;;10380268;28;20197;-68
2022/01/26 08:03:58;;;;;;;2.00;1.80;;;17.40;64.90;;;;;;10374770;28;20601;-69
2022/01/26 08:09:22;;;;;;;2.37;1.80;;;17.40;64.90;;;;;;10400769;28;20197;-69
2022/01/26 08:14:44;;;;;;;2.17;1.70;;;17.30;64.80;;;;;;10406807;28;20233;-69
2022/01/26 08:20:08;;;;;;;2.63;1.93;;;17.30;65.00;;;;;;10415272;28;20696;-68
2022/01/26 08:25:31;;;;;;;1.53;1.43;;;17.40;65.10;;;;;;10386943;28;20718;-69
2022/01/26 08:30:53;;;;;;;3.43;2.13;;;17.30;65.20;;;;;;10406353;28;20220;-68
2022/01/26 08:36:16;;;;;;;2.50;2.00;;;17.40;65.30;;;;;;10398859;28;20198;-68
2022/01/26 08:41:40;;;;;;;5.33;3.53;;;17.40;65.00;;;;;;10392378;28;20229;-68
2022/01/26 08:47:02;;;;;;;5.70;3.80;;;17.40;64.70;;;;;;10413815;28;20713;-67
2022/01/26 08:52:24;;;;;;;4.13;3.17;;;17.40;63.90;;;;;;10413832;28;20222;-68
2022/01/26 08:57:48;;;;;;;4.17;3.60;;;17.40;63.70;;;;;;10393955;28;20201;-67
2022/01/26 09:03:10;;;;;;;4.63;3.43;;;17.40;64.40;;;;;;10404056;28;20722;-68
2022/01/26 09:08:32;;;;;;;3.70;2.83;;;17.40;64.00;;;;;;10390436;28;20197;-68
2022/01/26 09:13:58;;;;;;;4.53;2.70;;;17.30;63.90;;;;;;10375464;28;20218;-68
2022/01/26 09:19:27;;;;;;;4.00;2.77;;;17.40;64.00;;;;;;10380766;28;20189;-68
2022/01/26 09:24:49;;;;;;;5.07;3.17;;;17.30;64.00;;;;;;10394577;28;20210;-68
2022/01/26 09:30:13;;;;;;;3.50;2.50;;;17.30;64.10;;;;;;10383570;28;20567;-68
2022/01/26 09:35:35;;;;;;;4.00;2.73;;;17.30;64.80;;;;;;10396759;28;20229;-68
2022/01/26 09:40:57;;;;;;;2.47;2.27;;;17.40;64.20;;;;;;10370733;28;20203;-68
2022/01/26 09:46:20;;;;;;;2.67;2.20;;;17.40;64.10;;;;;;10370868;28;20678;-70
2022/01/26 09:51:44;;;;;;;2.60;2.20;;;17.40;64.10;;;;;;10371449;28;20241;-68
2022/01/26 09:57:06;;;;;;;2.50;2.17;;;17.40;64.20;;;;;;10378063;28;20657;-69
2022/01/26 10:02:31;;;;;;;3.30;2.40;;;17.40;64.30;;;;;;10380417;28;20206;-68
2022/01/26 10:08:07;;;;;;;2.00;1.70;;;17.30;64.30;;;;;;10369487;28;20199;-68
2022/01/26 10:19:12;;;;;;;4.17;2.57;;;17.40;64.30;;;;;;10372994;28;20191;-68
2022/01/26 10:24:34;;;;;;;3.37;2.23;;;17.40;64.50;;;;;;10387849;28;20221;-67
2022/01/26 10:29:58;;;;;;;2.70;2.20;;;17.30;64.60;;;;;;10371779;28;20202;-67
2022/01/26 10:35:21;;;;;;;2.20;1.77;;;17.40;64.60;;;;;;10371291;28;20222;-69
2022/01/26 10:40:43;;;;;;;2.70;2.03;;;17.40;64.80;;;;;;10369246;28;20692;-68
2022/01/26 10:46:06;;;;;;;2.93;2.23;;;17.40;64.40;;;;;;10372622;28;20225;-69
2022/01/26 10:51:42;;;;;;;2.83;2.30;;;17.40;64.30;;;;;;10370483;28;20779;-67
2022/01/26 10:57:05;;;;;;;2.20;2.00;;;17.40;64.60;;;;;;10448954;22;20606;-63
2022/01/26 11:02:30;;;;;;;3.77;2.20;;;17.40;64.80;;;;;;10409855;28;20221;-63
2022/01/26 11:07:56;;;;;;;2.70;2.20;;;17.40;64.20;;;;;;10406719;28;20594;-63
2022/01/26 11:13:27;;;;;;;3.40;2.40;;;17.40;64.20;;;;;;10410888;28;20581;-62
2022/01/26 11:18:52;;;;;;;3.40;2.57;;;17.40;64.30;;;;;;10390141;28;20300;-63
2022/01/26 11:24:20;;;;;;;2.93;2.30;;;17.30;64.50;;;;;;10414497;28;20189;-64
2022/01/26 11:29:47;;;;;;;4.07;2.60;;;17.40;64.70;;;;;;10412649;28;20211;-63
2022/01/26 11:35:09;;;;;;;3.40;2.50;;;17.40;64.90;;;;;;10415618;28;20193;-63
2022/01/26 11:46:24;;;;;;;4.13;3.23;;;17.40;64.70;;;;;;10416541;28;20264;-63
2022/01/26 11:51:47;;;;;;;4.97;3.33;;;17.40;64.20;;;;;;10406368;28;20248;-63
2022/01/26 11:57:15;;;;;;;3.87;3.20;;;17.40;64.20;;;;;;10399333;28;20663;-66
2022/01/26 12:02:50;;;;;;;5.87;3.77;;;17.40;64.70;;;;;;10412383;28;20300;-64
2022/01/26 12:08:13;;;;;;;4.30;3.50;;;17.50;64.80;;;;;;10372704;28;20222;-62
2022/01/26 12:13:38;;;;;;;5.50;3.70;;;17.50;64.70;;;;;;10396830;28;20225;-64
2022/01/26 12:19:12;;;;;;;3.97;2.93;;;17.50;64.60;;;;;;10413836;28;20266;-64
2022/01/26 12:36:17;;;;;;;4.30;3.80;;;17.40;64.90;;;;;;10412498;28;20579;-64
2022/01/26 12:41:47;;;;;;;4.37;3.50;;;17.40;65.70;;;;;;10410399;28;20210;-64
2022/01/26 12:47:11;;;;;;;3.93;3.10;;;17.40;65.20;;;;;;10401699;28;20277;-64
2022/01/26 12:52:33;;;;;;;7.50;4.50;;;17.40;65.30;;;;;;10411471;28;20788;-63
2022/01/26 12:57:56;;;;;;;5.07;3.50;;;17.50;64.90;;;;;;10409827;28;20691;-65
2022/01/26 13:03:23;;;;;;;4.40;3.60;;;17.50;65.30;;;;;;10410725;28;20698;-62
2022/01/26 13:08:48;;;;;;;5.63;4.37;;;17.50;65.50;;;;;;10407479;28;20583;-62
2022/01/26 13:14:14;;;;;;;5.20;3.73;;;17.40;65.50;;;;;;10398247;28;20583;-63
2022/01/26 13:19:55;;;;;;;5.00;3.90;;;17.40;65.60;;;;;;10404032;28;20798;-62
2022/01/26 13:25:35;;;;;;;5.70;4.23;;;17.50;65.10;;;;;;10402658;28;20447;-63
2022/01/26 13:37:00;;;;;;;4.90;4.40;;;17.40;65.50;;;;;;10380159;28;20193;-63
2022/01/26 13:53:58;;;;;;;5.67;4.77;;;17.40;65.10;;;;;;10523874;28;20191;-64
2022/01/26 13:59:25;;;;;;;5.57;4.40;;;17.40;65.30;;;;;;10513760;28;20246;-64
2022/01/26 14:04:49;;;;;;;5.37;4.23;;;17.40;64.80;;;;;;10537556;28;20206;-66
2022/01/26 14:10:11;;;;;;;4.83;4.10;;;17.40;64.80;;;;;;10566874;28;20211;-66
2022/01/26 14:15:41;;;;;;;5.80;4.80;;;17.50;65.20;;;;;;10532425;28;20207;-65
2022/01/26 14:21:29;;;;;;;7.30;5.03;;;17.50;65.10;;;;;;10569158;28;20200;-66
2022/01/26 14:26:55;;;;;;;6.37;5.10;;;17.50;64.70;;;;;;10546405;28;20230;-65
2022/01/26 14:55:30;;;;;;;9.03;5.47;;;17.50;65.20;;;;;;10564219;28;20195;-66
2022/01/26 15:19:05;;;;;;;6.67;4.90;;;17.60;64.70;;;;;;10516606;28;20617;-65
2022/01/26 15:30:11;;;;;;;7.23;5.60;;;17.60;64.30;;;;;;10514693;28;20238;-66
2022/01/26 15:40:00;;;;;;;7.00;5.23;;;17.70;64.40;;;;;;10538000;28;20192;-66
2022/01/26 15:41:43;;;;;;;5.30;4.80;;;17.70;64.40;;;;;;10513248;28;20230;-66
2022/01/26 15:53:04;;;;;;;8.73;6.73;;;17.60;62.40;;;;;;10541810;28;20204;-66
2022/01/26 15:58:33;;;;;;;8.33;7.10;;;17.60;63.50;;;;;;10554634;28;20221;-63
2022/01/26 16:21:08;;;;;;;7.40;6.00;;;17.60;63.70;;;;;;10531784;28;20681;-64
2022/01/26 16:38:01;;;;;;;8.17;6.10;;;17.60;63.70;;;;;;10520942;28;20196;-63
2022/01/26 17:12:12;;;;;;;8.67;6.30;;;17.50;64.60;;;;;;10510456;28;20227;-62
2022/01/26 18:26:13;;;;;;;6.60;5.63;;;17.70;64.60;;;;;;10514715;28;20247;-64
2022/01/26 18:31:54;;;;;;;6.13;5.43;;;17.70;64.60;;;;;;10532748;28;20262;-65
2022/01/26 18:54:21;;;;;;;5.93;4.93;;;17.50;65.00;;;;;;10539267;28;20188;-63
2022/01/26 18:59:43;;;;;;;7.20;5.70;;;17.50;65.00;;;;;;10539908;28;20211;-63
2022/01/26 19:05:07;;;;;;;7.27;6.00;;;17.50;65.00;;;;;;10521843;28;20717;-63
2022/01/26 19:10:30;;;;;;;7.73;5.57;;;17.50;64.50;;;;;;10496349;28;20212;-62
2022/01/26 19:15:54;;;;;;;7.80;6.37;;;17.50;64.40;;;;;;10496901;28;20684;-63
2022/01/26 19:21:24;;;;;;;10.47;6.53;;;17.50;64.20;;;;;;10511905;28;20224;-63
2022/01/26 19:26:52;;;;;;;10.77;6.90;;;17.50;64.30;;;;;;10538758;28;20246;-63
2022/01/26 19:32:41;;;;;;;7.00;5.77;;;17.40;64.20;;;;;;10536845;28;20208;-62
2022/01/26 19:44:07;;;;;;;7.10;5.20;;;17.40;64.50;;;;;;10536120;28;20244;-63
2022/01/26 19:55:10;;;;;;;6.93;5.60;;;17.40;64.60;;;;;;10536662;28;20614;-63
2022/01/26 20:00:33;;;;;;;7.77;5.80;;;17.40;64.60;;;;;;10532167;23;20228;-67
2022/01/26 20:05:56;;;;;;;6.90;5.80;;;17.40;64.60;;;;;;10494147;28;20231;-68
2022/01/26 20:11:28;;;;;;;6.13;5.13;;;17.40;64.70;;;;;;10494184;28;20295;-68
2022/01/26 20:16:51;;;;;;;7.47;5.80;;;17.40;64.60;;;;;;10493897;28;20267;-68
2022/01/26 20:22:14;;;;;;;6.00;4.87;;;17.40;64.50;;;;;;10489188;28;20302;-67
2022/01/26 20:27:37;;;;;;;7.20;5.80;;;17.40;64.50;;;;;;10491922;28;20208;-66
2022/01/26 20:33:00;;;;;;;6.97;5.17;;;17.40;64.50;;;;;;10491428;28;20216;-67
2022/01/26 20:38:22;;;;;;;7.10;5.50;;;17.40;64.30;;;;;;10493399;28;20575;-66
2022/01/26 20:43:44;;;;;;;5.90;5.03;;;17.40;64.20;;;;;;10492764;28;20701;-67
2022/01/26 20:49:08;;;;;;;6.27;5.33;;;17.40;64.20;;;;;;10492851;28;20192;-66
2022/01/26 20:54:31;;;;;;;9.40;5.47;;;17.40;64.20;;;;;;10491087;28;20326;-66
2022/01/26 20:59:53;;;;;;;7.67;5.67;;;17.40;64.20;;;;;;10483734;28;20223;-67
2022/01/26 21:05:18;;;;;;;6.23;4.50;;;17.40;64.20;;;;;;10492936;28;20216;-67
2022/01/26 21:10:40;;;;;;;7.20;5.27;;;17.40;64.30;;;;;;10490051;28;20227;-67
2022/01/26 21:16:03;;;;;;;5.03;4.30;;;17.40;64.40;;;;;;10491266;28;20199;-67
2022/01/26 21:21:28;;;;;;;6.30;4.67;;;17.40;64.40;;;;;;10489405;28;20223;-67
2022/01/26 21:26:50;;;;;;;5.90;4.90;;;17.40;64.50;;;;;;10492951;28;20219;-67
2022/01/26 21:32:12;;;;;;;5.03;4.30;;;17.40;64.50;;;;;;10491725;28;20583;-67
2022/01/26 21:37:36;;;;;;;5.57;4.83;;;17.40;64.50;;;;;;10489879;28;20197;-67
2022/01/26 21:42:58;;;;;;;6.23;4.90;;;17.40;64.40;;;;;;10490137;28;20215;-67
2022/01/26 21:48:20;;;;;;;5.67;4.57;;;17.40;64.40;;;;;;10489887;28;20686;-67
2022/01/26 21:53:43;;;;;;;5.57;4.10;;;17.40;64.50;;;;;;10491984;28;20220;-67
2022/01/26 21:59:06;;;;;;;5.43;4.50;;;17.40;64.50;;;;;;10488257;28;20278;-67
2022/01/26 22:04:28;;;;;;;4.83;4.03;;;17.40;64.50;;;;;;10477538;28;20212;-67
2022/01/26 22:09:53;;;;;;;5.63;4.43;;;17.30;64.60;;;;;;10499666;28;20599;-66
2022/01/26 22:15:15;;;;;;;5.77;3.73;;;17.30;65.10;;;;;;10499282;28;20552;-68
2022/01/26 22:20:37;;;;;;;4.90;4.07;;;17.30;64.50;;;;;;10472412;28;20819;-67
2022/01/26 22:26:01;;;;;;;5.30;4.20;;;17.30;64.60;;;;;;10485497;28;20219;-67
2022/01/26 22:31:23;;;;;;;5.13;4.20;;;17.30;64.60;;;;;;10500509;28;20208;-67
2022/01/26 22:36:45;;;;;;;5.27;4.43;;;17.30;64.60;;;;;;10460644;28;20193;-67
2022/01/26 22:42:09;;;;;;;5.33;4.40;;;17.30;64.50;;;;;;10499000;28;20699;-67
2022/01/26 22:47:31;;;;;;;5.33;4.23;;;17.30;64.60;;;;;;10499164;28;20224;-67
2022/01/26 22:52:53;;;;;;;5.63;4.23;;;17.30;64.60;;;;;;10490186;28;20216;-67
2022/01/26 22:58:18;;;;;;;5.30;4.40;;;17.30;64.50;;;;;;10498003;28;20563;-67
2022/01/26 23:03:41;;;;;;;5.87;3.43;;;17.30;64.40;;;;;;10498521;28;20250;-67
2022/01/26 23:09:04;;;;;;;4.10;3.60;;;17.30;64.50;;;;;;10497482;28;20314;-67
2022/01/26 23:14:32;;;;;;;4.50;3.70;;;17.30;65.10;;;;;;10457399;28;20672;-69
2022/01/26 23:19:55;;;;;;;4.40;3.67;;;17.30;64.50;;;;;;10497523;28;20628;-67
2022/01/26 23:25:31;;;;;;;4.23;3.70;;;17.30;64.40;;;;;;10497577;28;20702;-69
2022/01/26 23:31:05;;;;;;;4.80;3.70;;;17.30;64.50;;;;;;10496588;28;20315;-67
2022/01/26 23:59:33;;;;;;;4.23;3.83;;;17.30;64.50;;;;;;10495285;28;20263;-68
